Time;durP1;ratioP1;P1;durP2;ratioP2;P2;SDS_P1;SDS_P2;PMS_P1;PMS_P2;Temp;Humidity;BMP_temperature;BMP_pressure;BME280_temperature;BME280_humidity;BME280_pressure;Samples;Min_cycle;Max_cycle;Signal;HPM_P1;HPM_P2
2021/05/10 00:01:31;;;;;;;15.35;5.22;;;;;;;23.12;38.29;99913.56;4472847;32;33366;-60
2021/05/10 00:04:01;;;;;;;7.82;4.22;;;;;;;23.12;38.35;99921.72;4475581;32;33787;-60
2021/05/10 00:06:28;;;;;;;14.48;5.28;;;;;;;23.13;38.40;99915.25;4483516;32;34196;-60
2021/05/10 00:08:56;;;;;;;12.90;5.03;;;;;;;23.14;38.54;99914.19;4484928;32;33741;-60
2021/05/10 00:11:24;;;;;;;11.73;5.25;;;;;;;23.12;38.38;99918.19;4484639;32;34188;-59
2021/05/10 00:13:53;;;;;;;11.55;5.65;;;;;;;23.12;38.41;99916.28;4471441;32;34439;-59
2021/05/10 00:16:20;;;;;;;12.10;5.03;;;;;;;23.11;38.46;99917.34;4479616;32;35501;-60
2021/05/10 00:18:47;;;;;;;9.43;5.05;;;;;;;23.11;38.49;99914.63;4484250;32;33532;-60
2021/05/10 00:21:15;;;;;;;11.12;4.82;;;;;;;23.12;38.41;99918.19;4484654;32;33363;-60
2021/05/10 00:23:42;;;;;;;10.68;5.35;;;;;;;23.11;38.41;99908.34;4484396;32;33607;-60
2021/05/10 00:26:09;;;;;;;11.57;5.37;;;;;;;23.11;38.42;99919.25;4484272;32;34776;-61
2021/05/10 00:28:36;;;;;;;13.20;4.62;;;;;;;23.10;38.44;99921.12;4484497;32;34055;-60
2021/05/10 00:31:03;;;;;;;13.50;4.87;;;;;;;23.10;38.49;99914.84;4484467;32;34391;-59
2021/05/10 00:33:31;;;;;;;13.20;5.50;;;;;;;23.11;38.46;99919.25;4484277;32;33754;-60
2021/05/10 00:35:58;;;;;;;13.82;5.00;;;;;;;23.11;38.41;99911.91;4484307;32;33849;-59
2021/05/10 00:38:25;;;;;;;12.45;5.30;;;;;;;23.10;38.45;99914.84;4484604;32;33793;-61
2021/05/10 00:40:52;;;;;;;13.32;5.18;;;;;;;23.09;38.51;99914.03;4482389;32;33348;-60
2021/05/10 00:43:19;;;;;;;13.32;4.97;;;;;;;23.11;38.52;99921.97;4484536;32;33883;-60
2021/05/10 00:45:47;;;;;;;10.68;4.50;;;;;;;23.09;38.54;99910.47;4484180;32;33935;-60
2021/05/10 00:48:17;;;;;;;12.43;5.32;;;;;;;23.10;38.51;99904.81;4484219;32;33866;-60
2021/05/10 00:50:45;;;;;;;11.00;4.78;;;;;;;23.11;38.50;99909.19;4484528;32;34087;-60
2021/05/10 00:53:13;;;;;;;12.52;4.72;;;;;;;23.10;38.65;99903.97;4484539;32;33834;-61
2021/05/10 00:55:40;;;;;;;12.60;4.90;;;;;;;23.10;38.66;99909.41;4484011;32;33850;-60
2021/05/10 00:58:07;;;;;;;12.40;5.07;;;;;;;23.09;38.71;99911.31;4484317;32;33497;-60
2021/05/10 01:00:38;;;;;;;13.35;4.50;;;;;;;23.10;38.76;99896.63;4484569;32;33082;-60
2021/05/10 01:03:07;;;;;;;10.07;4.45;;;;;;;23.08;38.81;99901.47;4484648;32;33823;-61
2021/05/10 01:05:36;;;;;;;14.55;5.00;;;;;;;23.09;38.75;99899.59;4484035;32;33782;-60
2021/05/10 01:08:05;;;;;;;9.77;4.37;;;;;;;23.09;38.75;99903.16;4484241;32;33901;-60
2021/05/10 01:10:32;;;;;;;10.93;4.57;;;;;;;23.09;38.82;99889.53;4484270;32;34316;-60
2021/05/10 01:13:01;;;;;;;11.80;4.85;;;;;;;23.09;38.81;99894.97;4484195;32;34059;-60
2021/05/10 01:15:29;;;;;;;10.50;4.75;;;;;;;23.08;38.86;99887.88;4482711;32;33864;-61
2021/05/10 01:17:57;;;;;;;10.67;4.73;;;;;;;23.09;38.92;99894.97;4482890;32;34728;-61
2021/05/10 01:20:24;;;;;;;9.70;4.20;;;;;;;23.10;38.83;99884.91;4484296;32;33669;-61
2021/05/10 01:22:56;;;;;;;11.55;4.70;;;;;;;23.09;38.82;99881.38;4483748;32;33744;-61
2021/05/10 01:25:28;;;;;;;9.85;3.95;;;;;;;23.09;38.89;99881.38;4484133;32;33851;-60
2021/05/10 01:27:56;;;;;;;11.55;4.78;;;;;;;23.09;38.94;99878.66;4484309;32;33732;-60
2021/05/10 01:30:24;;;;;;;10.52;4.37;;;;;;;23.07;38.98;99872.56;4484436;32;33349;-60
2021/05/10 01:32:52;;;;;;;9.82;4.50;;;;;;;23.07;38.88;99869.84;4483878;32;33668;-60
2021/05/10 01:35:25;;;;;;;14.07;4.35;;;;;;;23.07;38.83;99872.56;4484017;32;33678;-60
2021/05/10 01:37:52;;;;;;;9.07;4.43;;;;;;;23.07;38.87;99877.19;4484098;32;33722;-59
2021/05/10 01:40:19;;;;;;;10.90;4.87;;;;;;;23.06;38.81;99873.63;4482889;32;34063;-60
2021/05/10 01:42:47;;;;;;;11.25;4.87;;;;;;;23.07;38.86;99874.47;4483455;32;34403;-60
2021/05/10 01:45:14;;;;;;;7.50;3.80;;;;;;;23.07;38.91;99869.03;4484386;32;33602;-60
2021/05/10 01:47:41;;;;;;;11.52;4.37;;;;;;;23.07;38.84;99878.03;4484152;32;34364;-61
2021/05/10 01:50:10;;;;;;;11.82;4.47;;;;;;;23.06;38.85;99873.63;4482941;32;34104;-60
2021/05/10 01:52:38;;;;;;;10.82;4.10;;;;;;;23.06;38.85;99867.38;4482533;32;33760;-60
2021/05/10 01:55:05;;;;;;;12.15;5.25;;;;;;;23.06;38.79;99868.19;4484153;32;33892;-60
2021/05/10 01:57:32;;;;;;;10.02;4.28;;;;;;;23.05;38.78;99861.09;4483953;32;33818;-60
2021/05/10 01:59:59;;;;;;;11.40;5.20;;;;;;;23.05;38.74;99863.81;4483736;32;34407;-61
2021/05/10 02:02:26;;;;;;;7.05;4.25;;;;;;;23.05;38.74;99860.25;4483362;32;34891;-60
2021/05/10 02:05:22;;;;;;;8.77;4.18;;;;;;;23.05;38.75;99857.53;4483669;32;34999;-60
2021/05/10 02:07:53;;;;;;;10.60;4.65;;;;;;;23.08;38.71;99854.34;4481658;31;33792;-60
2021/05/10 02:10:28;;;;;;;8.02;3.78;;;;;;;23.06;38.82;99857.31;4483666;32;33605;-60
2021/05/10 02:12:56;;;;;;;6.93;3.80;;;;;;;23.04;38.83;99862.16;4483543;32;33762;-60
2021/05/10 02:15:25;;;;;;;8.30;3.97;;;;;;;23.03;38.75;99856.91;4483707;32;34576;-60
2021/05/10 02:17:52;;;;;;;10.40;3.92;;;;;;;23.03;38.74;99855.03;4483809;32;33986;-61
2021/05/10 02:20:21;;;;;;;10.13;4.07;;;;;;;23.04;38.77;99858.59;4484053;32;33379;-61
2021/05/10 02:22:54;;;;;;;8.80;4.32;;;;;;;23.03;38.79;99863.19;4483428;32;34437;-60
2021/05/10 02:25:27;;;;;;;7.68;4.25;;;;;;;23.03;38.80;99860.47;4483642;32;34162;-60
2021/05/10 02:27:54;;;;;;;9.23;4.10;;;;;;;23.02;38.76;99858.81;4483624;32;33740;-60
2021/05/10 02:30:23;;;;;;;8.98;4.07;;;;;;;23.03;38.75;99867.81;4483570;32;33338;-60
2021/05/10 02:32:51;;;;;;;12.57;4.47;;;;;;;23.03;38.96;99863.19;4483282;32;33873;-60
2021/05/10 02:35:19;;;;;;;8.32;4.12;;;;;;;23.04;39.04;99867.59;4483338;32;33874;-61
2021/05/10 02:37:46;;;;;;;8.00;4.15;;;;;;;23.03;38.99;99860.47;4483566;32;33761;-60
2021/05/10 02:40:14;;;;;;;9.40;4.37;;;;;;;23.03;38.95;99868.62;4483498;32;34670;-61
2021/05/10 02:42:41;;;;;;;7.78;4.12;;;;;;;23.04;38.96;99862.16;4483139;32;34842;-60
2021/05/10 02:45:09;;;;;;;8.70;3.97;;;;;;;23.04;38.99;99864.87;4483422;32;34464;-60
2021/05/10 02:47:37;;;;;;;11.07;4.30;;;;;;;23.04;38.98;99867.59;4483602;32;34424;-60
2021/05/10 02:50:05;;;;;;;9.27;4.43;;;;;;;23.04;38.90;99877.66;4483455;32;33333;-60
2021/05/10 02:52:33;;;;;;;10.38;4.43;;;;;;;23.03;39.02;99873.25;4483139;32;34638;-60
2021/05/10 02:55:00;;;;;;;9.18;3.60;;;;;;;23.03;39.01;99879.50;4483335;32;35059;-61
2021/05/10 02:57:27;;;;;;;10.82;4.35;;;;;;;23.03;38.94;99879.50;4483122;32;34063;-60
2021/05/10 02:59:54;;;;;;;11.05;4.20;;;;;;;23.03;39.10;99876.78;4483359;32;33469;-61
2021/05/10 03:02:22;;;;;;;8.70;3.67;;;;;;;23.03;39.00;99873.25;4482884;32;33697;-60
2021/05/10 03:04:49;;;;;;;7.55;3.97;;;;;;;23.02;38.97;99880.56;4485460;32;34814;-60
2021/05/10 03:07:16;;;;;;;9.15;3.83;;;;;;;23.02;38.92;99879.75;4485357;32;33785;-60
2021/05/10 03:09:44;;;;;;;9.80;4.05;;;;;;;23.03;38.91;99884.13;4485179;32;32919;-61
2021/05/10 03:12:11;;;;;;;8.80;3.90;;;;;;;23.02;38.92;99877.84;4484837;32;33817;-60
2021/05/10 03:14:38;;;;;;;9.15;3.97;;;;;;;23.02;38.91;99871.59;4485229;32;33552;-61
2021/05/10 03:17:05;;;;;;;8.43;4.53;;;;;;;23.01;38.96;99876.19;4485285;32;33720;-59
2021/05/10 03:19:32;;;;;;;7.65;3.72;;;;;;;23.01;38.98;99875.38;4485095;32;34389;-60
2021/05/10 03:21:59;;;;;;;11.48;3.92;;;;;;;23.01;38.98;99875.38;4484827;32;33707;-61
2021/05/10 03:24:27;;;;;;;9.32;3.72;;;;;;;23.01;38.99;99872.66;4484673;32;33954;-61
2021/05/10 03:27:00;;;;;;;9.30;4.00;;;;;;;23.01;39.02;99872.66;4484675;32;34735;-61
2021/05/10 03:29:27;;;;;;;8.00;3.92;;;;;;;23.00;39.02;99868.25;4483567;32;33394;-59
2021/05/10 03:31:54;;;;;;;11.05;4.35;;;;;;;23.00;39.22;99874.53;4476723;32;34639;-60
2021/05/10 03:34:21;;;;;;;8.55;3.90;;;;;;;23.01;39.29;99881.63;4477802;32;34170;-59
2021/05/10 03:36:49;;;;;;;7.25;3.47;;;;;;;23.00;39.28;99870.97;4483412;32;33812;-59
2021/05/10 03:39:16;;;;;;;8.63;3.92;;;;;;;23.01;39.24;99878.91;4474783;32;33004;-59
2021/05/10 03:41:43;;;;;;;10.77;4.85;;;;;;;23.01;39.26;99880.81;4469061;32;34443;-59
2021/05/10 03:44:10;;;;;;;8.25;3.45;;;;;;;23.00;39.10;99879.16;4469336;32;33666;-59
2021/05/10 03:46:37;;;;;;;8.60;3.60;;;;;;;22.99;39.07;99881.03;4469107;32;33995;-60
2021/05/10 03:49:04;;;;;;;7.80;4.28;;;;;;;23.00;39.11;99876.44;4483403;32;33662;-59
2021/05/10 03:51:31;;;;;;;6.43;3.42;;;;;;;22.99;39.05;99875.59;4484879;32;34030;-60
2021/05/10 03:53:58;;;;;;;9.65;4.07;;;;;;;22.99;39.07;99875.59;4484809;32;34880;-59
2021/05/10 03:56:25;;;;;;;7.62;3.45;;;;;;;23.00;39.00;99870.97;4484136;32;34389;-60
2021/05/10 03:58:53;;;;;;;10.18;4.20;;;;;;;22.99;39.02;99872.03;4473261;32;33283;-60
2021/05/10 04:01:20;;;;;;;7.72;3.92;;;;;;;22.99;39.05;99877.47;4470100;32;33767;-60
2021/05/10 04:04:37;;;;;;;6.80;3.40;;;;;;;22.97;39.05;99880.41;4484631;32;33940;-59
2021/05/10 04:14:42;;;;;;;9.02;3.62;;;;;;;22.99;39.29;99891.94;4468133;32;34609;-60
2021/05/10 04:17:09;;;;;;;6.97;3.42;;;;;;;22.99;39.24;99882.91;4469070;32;33738;-61
2021/05/10 04:19:36;;;;;;;7.85;3.47;;;;;;;22.99;39.29;99882.91;4468859;32;33445;-60
2021/05/10 04:22:03;;;;;;;11.70;4.10;;;;;;;22.99;39.34;99885.63;4468869;32;33840;-60
2021/05/10 04:24:30;;;;;;;9.55;3.60;;;;;;;22.98;39.35;99879.34;4478562;32;33917;-61
2021/05/10 04:26:58;;;;;;;7.93;3.62;;;;;;;22.98;39.48;99886.69;4484574;32;33741;-60
2021/05/10 04:29:26;;;;;;;6.90;3.70;;;;;;;22.98;39.42;99884.78;4485013;32;34304;-60
2021/05/10 04:31:53;;;;;;;9.25;4.05;;;;;;;22.99;39.31;99896.50;4484775;32;33577;-60
2021/05/10 04:34:20;;;;;;;8.18;3.47;;;;;;;22.98;39.32;99890.25;4484903;32;34861;-60
2021/05/10 04:36:47;;;;;;;7.90;3.33;;;;;;;22.99;39.29;99899.22;4484660;32;33705;-60
2021/05/10 04:39:14;;;;;;;9.52;4.00;;;;;;;22.98;39.26;99892.13;4484631;32;33451;-60
2021/05/10 04:41:41;;;;;;;10.00;3.80;;;;;;;22.99;39.26;99894.66;4479750;32;33791;-59
2021/05/10 04:44:08;;;;;;;26.48;4.45;;;;;;;22.98;39.25;99894.84;4476212;32;33967;-59
2021/05/10 04:46:36;;;;;;;20.88;4.32;;;;;;;23.01;37.66;99884.38;4480213;32;33868;-62
2021/05/10 04:49:03;;;;;;;25.02;4.00;;;;;;;22.97;37.57;99885.84;4480224;32;33414;-61
2021/05/10 04:51:30;;;;;;;11.02;3.80;;;;;;;22.95;37.96;99896.13;4468788;32;33941;-62
2021/05/10 04:53:58;;;;;;;17.92;3.70;;;;;;;22.94;38.08;99889.00;4468809;32;33494;-62
2021/05/10 04:56:25;;;;;;;15.70;3.67;;;;;;;22.94;37.99;99888.19;4468775;32;33784;-61
2021/05/10 04:58:52;;;;;;;21.95;4.12;;;;;;;22.94;38.05;99891.72;4468868;32;33377;-62
2021/05/10 05:01:19;;;;;;;13.75;3.65;;;;;;;22.92;38.21;99889.25;4481366;32;33724;-62
2021/05/10 05:03:46;;;;;;;18.98;4.40;;;;;;;22.90;38.28;99888.63;4484487;32;34921;-61
2021/05/10 05:06:14;;;;;;;23.15;4.78;;;;;;;22.91;38.28;99894.91;4484596;32;34359;-61
2021/05/10 05:08:41;;;;;;;20.70;4.03;;;;;;;22.91;38.29;99897.62;4484473;32;34359;-62
2021/05/10 05:11:08;;;;;;;16.25;4.25;;;;;;;22.91;38.28;99892.19;4484406;32;33780;-61
2021/05/10 05:13:35;;;;;;;18.87;4.43;;;;;;;22.90;38.28;99894.09;4484416;32;33837;-62
2021/05/10 05:16:02;;;;;;;15.38;3.83;;;;;;;22.90;38.29;99904.97;4484361;32;33541;-62
2021/05/10 05:18:29;;;;;;;15.55;3.67;;;;;;;22.90;38.28;99904.97;4484402;32;34076;-62
2021/05/10 05:20:57;;;;;;;13.50;3.53;;;;;;;22.91;38.28;99908.50;4484397;32;33756;-62
2021/05/10 05:23:25;;;;;;;12.60;4.00;;;;;;;22.90;38.28;99913.12;4484354;32;33890;-62
2021/05/10 05:25:54;;;;;;;12.88;4.12;;;;;;;22.89;38.30;99916.03;4481647;32;34124;-60
2021/05/10 05:28:21;;;;;;;13.35;4.05;;;;;;;22.89;38.29;99914.16;4479220;32;33149;-62
2021/05/10 05:30:48;;;;;;;10.02;3.30;;;;;;;22.90;38.28;99912.28;4473934;32;33902;-62
2021/05/10 05:33:15;;;;;;;14.48;3.80;;;;;;;22.91;38.28;99919.41;4465329;32;87660;-62
2021/05/10 05:35:43;;;;;;;12.50;3.62;;;;;;;22.90;38.29;99917.75;4482050;32;34537;-61
2021/05/10 05:38:11;;;;;;;9.07;3.87;;;;;;;22.91;38.26;99919.41;4483701;32;33278;-61
2021/05/10 05:40:38;;;;;;;9.43;3.15;;;;;;;22.91;38.29;99924.84;4483519;32;33481;-62
2021/05/10 05:43:08;;;;;;;11.98;3.53;;;;;;;22.90;38.29;99917.75;4480626;32;34188;-61
2021/05/10 05:45:35;;;;;;;10.82;3.80;;;;;;;22.91;38.29;99916.69;4468438;32;33800;-62
2021/05/10 05:48:07;;;;;;;15.02;3.65;;;;;;;22.90;38.29;99915.84;4468062;32;33490;-62
2021/05/10 05:50:34;;;;;;;12.25;3.40;;;;;;;22.90;38.30;99915.03;4468332;32;33838;-62
2021/05/10 05:53:01;;;;;;;12.80;3.33;;;;;;;22.90;38.26;99912.28;4468375;32;33968;-62
2021/05/10 05:55:29;;;;;;;12.77;3.58;;;;;;;22.90;38.27;99902.25;4468166;32;33749;-62
2021/05/10 05:58:02;;;;;;;13.73;4.05;;;;;;;22.90;38.27;99904.13;4468380;32;33309;-62
2021/05/10 06:00:29;;;;;;;8.15;3.05;;;;;;;22.90;38.29;99909.56;4468292;32;33883;-62
2021/05/10 06:02:57;;;;;;;14.38;3.62;;;;;;;22.89;38.29;99906.00;4467892;32;34617;-61
2021/05/10 06:05:24;;;;;;;8.68;3.35;;;;;;;22.89;38.30;99899.72;4468289;32;33846;-63
2021/05/10 06:07:51;;;;;;;11.00;3.60;;;;;;;22.89;38.29;99902.44;4467389;32;33289;-62
2021/05/10 06:10:22;;;;;;;12.88;3.42;;;;;;;22.90;38.29;99898.69;4468063;32;33878;-62
2021/05/10 06:12:52;;;;;;;8.90;3.40;;;;;;;22.88;38.31;99893.41;4468086;32;33957;-62
2021/05/10 06:15:21;;;;;;;7.37;3.30;;;;;;;22.89;38.30;99905.16;4468068;32;34837;-62
2021/05/10 06:17:48;;;;;;;10.80;2.87;;;;;;;22.89;38.28;99899.72;4468120;32;34359;-62
2021/05/10 06:20:17;;;;;;;9.43;3.20;;;;;;;22.89;38.28;99900.56;4475684;32;34693;-62
2021/05/10 06:22:44;;;;;;;8.27;2.90;;;;;;;22.87;38.29;99891.75;4482284;32;34785;-62
2021/05/10 06:25:13;;;;;;;9.15;3.10;;;;;;;22.87;38.28;99902.63;4483584;32;33978;-62
2021/05/10 06:27:40;;;;;;;8.07;3.37;;;;;;;22.88;38.29;99898.03;4483593;32;33369;-62
2021/05/10 06:30:09;;;;;;;9.63;2.83;;;;;;;22.89;38.26;99891.56;4483781;32;34678;-62
2021/05/10 06:32:36;;;;;;;10.27;3.15;;;;;;;22.88;38.27;99898.03;4483752;32;33821;-62
2021/05/10 06:35:04;;;;;;;10.95;3.05;;;;;;;22.87;38.28;99894.47;4482127;32;33904;-62
2021/05/10 06:37:34;;;;;;;9.25;3.40;;;;;;;22.89;38.27;99891.56;4481457;32;33445;-62
2021/05/10 06:40:01;;;;;;;5.68;2.65;;;;;;;22.88;38.28;99892.59;4483365;32;34833;-62
2021/05/10 06:42:28;;;;;;;9.70;2.95;;;;;;;22.89;38.29;99886.13;4483463;32;34740;-62
2021/05/10 06:44:57;;;;;;;10.15;2.90;;;;;;;22.88;38.32;99892.59;4483388;32;34461;-62
2021/05/10 06:47:26;;;;;;;6.90;3.08;;;;;;;22.89;38.33;99894.28;4483473;32;33050;-61
2021/05/10 06:49:53;;;;;;;7.65;3.92;;;;;;;22.90;38.31;99898.69;4483493;32;33788;-62
2021/05/10 06:52:21;;;;;;;10.63;3.00;;;;;;;22.90;38.28;99899.53;4483188;32;34796;-62
2021/05/10 06:54:48;;;;;;;10.85;3.80;;;;;;;22.88;38.30;99896.13;4483406;32;33711;-62
2021/05/10 06:57:15;;;;;;;7.22;3.28;;;;;;;22.90;38.29;99904.97;4483362;32;33367;-62
2021/05/10 06:59:43;;;;;;;9.48;3.10;;;;;;;22.90;38.30;99901.41;4483047;32;33905;-61
2021/05/10 07:02:10;;;;;;;11.88;3.08;;;;;;;22.90;38.27;99888.63;4483325;32;34650;-62
2021/05/10 07:04:37;;;;;;;5.70;2.62;;;;;;;22.91;38.22;99887.56;4483114;32;34967;-62
2021/05/10 07:07:04;;;;;;;9.80;3.05;;;;;;;22.92;38.24;99891.97;4483248;32;33600;-62
2021/05/10 07:09:31;;;;;;;7.35;2.85;;;;;;;22.92;38.21;99891.12;4483201;32;33829;-62
2021/05/10 07:11:58;;;;;;;6.45;2.58;;;;;;;22.93;38.21;99892.78;4483042;32;33884;-62
2021/05/10 07:14:26;;;;;;;5.32;2.70;;;;;;;22.94;38.21;99891.72;4482801;32;33723;-62
2021/05/10 07:16:53;;;;;;;7.72;2.62;;;;;;;22.93;38.17;99873.75;4481843;32;34041;-61
2021/05/10 07:19:20;;;;;;;7.43;2.97;;;;;;;22.94;38.10;99869.97;4481632;32;33745;-62
2021/05/10 07:21:47;;;;;;;5.75;2.90;;;;;;;22.95;38.16;99879.81;4467189;32;33925;-62
2021/05/10 07:24:15;;;;;;;6.80;3.33;;;;;;;22.95;38.14;99874.38;4467264;32;33735;-61
2021/05/10 07:26:42;;;;;;;6.22;2.55;;;;;;;22.95;38.10;99878.97;4467240;32;34054;-62
2021/05/10 07:29:09;;;;;;;7.07;2.50;;;;;;;22.96;37.91;99886.09;4467172;32;34616;-62
2021/05/10 07:31:37;;;;;;;8.25;2.15;;;;;;;22.95;37.93;99887.16;4467163;32;35039;-61
2021/05/10 07:34:04;;;;;;;7.53;2.90;;;;;;;22.96;37.99;99886.09;4467001;32;33760;-61
2021/05/10 07:36:31;;;;;;;5.75;2.72;;;;;;;22.95;38.04;99879.81;4465821;32;33421;-61
2021/05/10 07:38:58;;;;;;;6.18;2.78;;;;;;;22.96;38.09;99876.03;4467038;32;33729;-62
2021/05/10 07:41:25;;;;;;;8.32;2.92;;;;;;;22.96;37.88;99878.75;4467042;32;33976;-63
2021/05/10 07:43:53;;;;;;;7.70;2.80;;;;;;;22.98;38.03;99873.06;4466725;32;33795;-61
2021/05/10 07:46:20;;;;;;;6.85;2.67;;;;;;;22.98;37.97;99875.81;4467021;32;34345;-61
2021/05/10 07:48:47;;;;;;;6.32;2.70;;;;;;;22.97;38.01;99874.13;4473300;32;34534;-62
2021/05/10 07:51:15;;;;;;;7.12;2.70;;;;;;;22.97;38.01;99872.25;4481607;32;33844;-62
2021/05/10 07:53:42;;;;;;;6.25;2.55;;;;;;;22.98;37.97;99871.19;4484919;32;34955;-62
2021/05/10 07:56:09;;;;;;;7.60;3.22;;;;;;;22.97;38.05;99858.66;4481044;32;34361;-63
2021/05/10 07:58:39;;;;;;;7.43;2.62;;;;;;;22.98;38.00;99856.75;4468856;32;33629;-62
2021/05/10 08:01:06;;;;;;;6.28;2.42;;;;;;;22.99;38.07;99856.56;4469076;32;33827;-62
2021/05/10 08:03:33;;;;;;;8.52;2.90;;;;;;;22.99;38.03;99855.69;4469035;32;33882;-62
2021/05/10 08:06:01;;;;;;;6.78;3.17;;;;;;;22.99;38.03;99861.13;4474907;32;33386;-61
2021/05/10 08:08:28;;;;;;;5.82;2.90;;;;;;;22.98;38.08;99852.12;4482948;32;34935;-63
2021/05/10 08:10:56;;;;;;;6.22;2.45;;;;;;;22.98;38.08;99841.25;4480542;32;32557;-62
2021/05/10 08:13:23;;;;;;;8.32;3.05;;;;;;;22.99;38.09;99837.50;4468742;32;33707;-61
2021/05/10 08:15:50;;;;;;;4.97;2.30;;;;;;;22.98;38.08;99833.09;4478460;32;33448;-63
2021/05/10 08:18:17;;;;;;;5.55;3.00;;;;;;;22.99;38.08;99839.38;4484606;32;33832;-63
2021/05/10 08:20:44;;;;;;;6.62;2.40;;;;;;;22.99;38.09;99844.81;4484529;32;33937;-63
2021/05/10 08:23:12;;;;;;;5.40;2.45;;;;;;;22.98;38.09;99841.25;4484674;32;33799;-63
2021/05/10 08:25:39;;;;;;;5.47;2.50;;;;;;;22.99;38.08;99850.25;4484660;32;34222;-63
2021/05/10 08:28:06;;;;;;;6.45;2.85;;;;;;;22.98;38.08;99840.44;4474447;32;33750;-63
2021/05/10 08:30:34;;;;;;;6.28;2.65;;;;;;;22.99;38.04;99833.91;4468810;32;33931;-63
2021/05/10 08:33:02;;;;;;;5.78;2.42;;;;;;;22.98;38.03;99830.38;4468941;32;34485;-62
2021/05/10 08:35:29;;;;;;;9.90;2.90;;;;;;;22.98;38.03;99819.50;4468578;32;33033;-64
2021/05/10 08:38:01;;;;;;;4.97;2.40;;;;;;;22.98;38.04;99819.50;4469108;32;33690;-61
2021/05/10 08:40:29;;;;;;;5.87;2.70;;;;;;;22.99;38.03;99820.31;4468813;32;34879;-63
2021/05/10 08:42:58;;;;;;;4.53;2.30;;;;;;;22.99;38.03;99823.91;4468467;32;34013;-62
2021/05/10 08:45:25;;;;;;;4.97;2.60;;;;;;;22.99;38.04;99817.59;4467643;32;32304;-63
2021/05/10 08:47:57;;;;;;;8.50;2.55;;;;;;;22.99;38.01;99810.28;4468843;32;34792;-64
2021/05/10 08:50:25;;;;;;;5.15;2.70;;;;;;;22.99;38.02;99809.44;4468842;32;34089;-63
2021/05/10 08:52:52;;;;;;;6.07;2.40;;;;;;;22.99;38.02;99801.28;4468830;32;33965;-64
2021/05/10 08:55:19;;;;;;;5.18;2.20;;;;;;;22.98;38.03;99800.44;4468732;32;33248;-62
2021/05/10 08:57:46;;;;;;;7.45;2.33;;;;;;;22.97;38.01;99785.19;4468937;32;34486;-62
2021/05/10 09:00:14;;;;;;;5.25;2.08;;;;;;;22.97;38.02;99801.50;4468392;32;34778;-63
2021/05/10 09:02:41;;;;;;;4.55;2.10;;;;;;;22.98;38.03;99796.88;4468483;32;34579;-63
2021/05/10 09:05:14;;;;;;;6.45;2.35;;;;;;;22.98;38.04;99788.72;4481873;32;32967;-64
2021/05/10 09:07:42;;;;;;;8.05;2.78;;;;;;;22.98;38.07;99786.00;4484330;32;33785;-65
2021/05/10 09:10:13;;;;;;;7.95;2.10;;;;;;;22.99;37.76;99779.50;4484124;32;33505;-65
2021/05/10 09:12:47;;;;;;;8.65;3.33;;;;;;;22.97;37.42;99787.91;4484372;32;34191;-64
2021/05/10 09:15:21;;;;;;;8.63;2.22;;;;;;;22.97;37.45;99787.91;4484368;32;33901;-64
2021/05/10 09:17:52;;;;;;;6.62;2.40;;;;;;;22.99;37.07;99771.34;4484581;32;33827;-64
2021/05/10 09:20:28;;;;;;;5.45;2.33;;;;;;;22.94;36.54;99777.44;4481112;32;33515;-63
2021/05/10 09:22:59;;;;;;;9.35;2.50;;;;;;;22.91;36.45;99780.63;4473452;32;34854;-62
2021/05/10 09:25:33;;;;;;;6.07;2.15;;;;;;;22.94;36.65;99776.62;4479852;32;33216;-63
2021/05/10 09:28:19;;;;;;;6.05;2.35;;;;;;;22.94;36.66;99776.62;4471297;32;34982;-63
2021/05/10 09:30:50;;;;;;;5.82;2.15;;;;;;;22.96;36.65;99774.53;4484026;32;33901;-63
2021/05/10 09:33:25;;;;;;;6.50;2.35;;;;;;;22.94;36.68;99763.00;4483808;32;33925;-63
2021/05/10 09:35:52;;;;;;;7.00;2.58;;;;;;;22.95;36.61;99757.37;4484325;32;33317;-62
2021/05/10 09:38:20;;;;;;;7.22;2.70;;;;;;;22.95;36.54;99762.81;4478691;32;34596;-63
2021/05/10 09:40:51;;;;;;;6.95;2.10;;;;;;;22.95;36.57;99762.81;4468166;32;34524;-62
2021/05/10 09:43:21;;;;;;;6.50;2.47;;;;;;;22.96;36.51;99763.63;4468313;32;33597;-64
2021/05/10 09:45:51;;;;;;;6.87;2.42;;;;;;;22.97;36.50;99757.13;4468755;32;33258;-63
2021/05/10 09:48:30;;;;;;;4.82;2.40;;;;;;;22.95;36.41;99751.94;4468416;32;34371;-63
2021/05/10 09:51:03;;;;;;;4.57;2.35;;;;;;;22.97;36.43;99748.97;4468431;32;34688;-63
2021/05/10 09:53:35;;;;;;;5.45;2.10;;;;;;;22.97;36.27;99749.81;4468261;32;35146;-62
2021/05/10 09:56:03;;;;;;;4.82;2.00;;;;;;;22.98;36.33;99734.31;4468496;32;33283;-63
2021/05/10 09:58:43;;;;;;;5.25;2.12;;;;;;;22.97;36.16;99733.47;4468095;32;34675;-62
2021/05/10 10:01:12;;;;;;;5.00;2.20;;;;;;;22.98;36.10;99732.41;4468575;32;34694;-63
2021/05/10 10:03:45;;;;;;;6.35;1.92;;;;;;;22.97;36.00;99730.75;4468205;32;33872;-63
2021/05/10 10:06:16;;;;;;;6.70;2.33;;;;;;;22.98;36.03;99716.09;4468587;32;33191;-63
2021/05/10 10:08:47;;;;;;;6.10;2.40;;;;;;;22.97;36.01;99719.87;4468250;32;33731;-62
2021/05/10 10:11:19;;;;;;;6.15;2.30;;;;;;;22.97;36.15;99717.16;4468163;32;34017;-63
2021/05/10 10:13:47;;;;;;;4.68;2.05;;;;;;;22.92;36.07;99714.28;4466970;32;33481;-63
2021/05/10 10:16:16;;;;;;;3.17;1.67;;;;;;;22.92;35.84;99709.66;4482912;32;34336;-62
2021/05/10 10:18:44;;;;;;;6.47;2.37;;;;;;;22.95;35.85;99718.44;4483817;32;33807;-61
2021/05/10 10:21:15;;;;;;;3.78;1.98;;;;;;;22.96;35.89;99729.09;4483849;32;34513;-63
2021/05/10 10:23:44;;;;;;;7.15;2.08;;;;;;;22.96;35.92;99717.38;4483661;32;34073;-62
2021/05/10 10:26:35;;;;;;;4.60;2.08;;;;;;;22.94;35.89;99709.44;4483732;32;33150;-63
2021/05/10 10:29:09;;;;;;;4.55;2.15;;;;;;;22.95;35.74;99705.66;4483511;32;34579;-62
2021/05/10 10:31:41;;;;;;;3.95;1.95;;;;;;;22.95;35.74;99716.56;4477693;32;33727;-62
2021/05/10 10:34:26;;;;;;;7.10;2.20;;;;;;;22.96;35.68;99710.06;4474200;32;33562;-62
2021/05/10 10:36:59;;;;;;;6.70;2.08;;;;;;;22.99;35.58;99716.91;4482463;32;33262;-63
2021/05/10 10:39:27;;;;;;;3.78;1.83;;;;;;;22.96;35.58;99703.78;4483595;32;34601;-63
2021/05/10 10:42:20;;;;;;;3.15;1.65;;;;;;;22.97;35.70;99700.81;4483517;32;33892;-62
2021/05/10 10:44:55;;;;;;;3.35;1.85;;;;;;;22.97;35.85;99695.38;4481899;32;33868;-64
2021/05/10 10:47:43;;;;;;;6.87;2.10;;;;;;;22.98;35.75;99690.75;4483167;32;33024;-62
2021/05/10 10:50:11;;;;;;;5.05;2.10;;;;;;;22.96;35.83;99676.56;4482834;32;33840;-65
2021/05/10 10:52:55;;;;;;;5.53;2.12;;;;;;;22.90;35.86;99686.47;4483109;32;33535;-65
2021/05/10 10:55:24;;;;;;;5.50;2.30;;;;;;;22.94;35.89;99676.78;4482997;32;33690;-65
2021/05/10 10:57:53;;;;;;;6.10;2.03;;;;;;;22.94;35.63;99679.50;4483475;32;33436;-64
2021/05/10 11:00:21;;;;;;;4.18;2.20;;;;;;;22.94;35.68;99686.81;4483449;32;34097;-64
2021/05/10 11:02:50;;;;;;;6.80;1.90;;;;;;;22.90;35.71;99670.97;4483150;32;33790;-64
2021/05/10 11:05:22;;;;;;;4.70;2.10;;;;;;;22.94;35.66;99682.22;4482972;32;33704;-65
2021/05/10 11:08:09;;;;;;;6.97;2.17;;;;;;;22.98;35.59;99685.31;4483278;32;33051;-64
2021/05/10 11:10:40;;;;;;;5.43;2.05;;;;;;;22.98;35.49;99677.16;4483050;32;33777;-64
2021/05/10 11:13:08;;;;;;;4.43;1.73;;;;;;;22.95;35.69;99674.91;4483017;32;33655;-63
2021/05/10 11:15:35;;;;;;;5.32;1.85;;;;;;;22.95;35.73;99667.56;4482841;32;33928;-64
2021/05/10 11:18:02;;;;;;;6.05;1.95;;;;;;;22.97;35.37;99673.63;4483059;32;34328;-61
2021/05/10 11:20:43;;;;;;;5.70;2.00;;;;;;;22.97;35.54;99665.44;4482700;32;34409;-64
2021/05/10 11:23:28;;;;;;;5.03;2.00;;;;;;;22.98;35.32;99661.66;4482932;32;33886;-63
2021/05/10 11:25:57;;;;;;;5.85;2.17;;;;;;;22.99;35.47;99665.22;4484646;32;33910;-64
2021/05/10 11:28:24;;;;;;;4.62;1.92;;;;;;;22.98;35.38;99669.81;4485188;32;34035;-65
2021/05/10 11:31:04;;;;;;;4.30;1.98;;;;;;;22.97;35.42;99662.72;4485010;32;33804;-65
2021/05/10 11:33:53;;;;;;;3.75;1.85;;;;;;;23.00;35.24;99650.56;4484954;32;34533;-64
2021/05/10 11:36:23;;;;;;;3.80;1.83;;;;;;;23.00;35.09;99661.47;4484764;32;33598;-64
2021/05/10 11:38:54;;;;;;;;;;;;;;;23.00;35.32;99659.56;4485089;32;33285;-65
2021/05/10 11:41:34;;;;;;;5.90;2.10;;;;;;;23.08;35.08;99659.28;4482144;32;34198;-64
2021/05/10 11:44:04;;;;;;;4.12;1.90;;;;;;;23.03;35.10;99661.81;4484805;32;33714;-64
2021/05/10 11:46:41;;;;;;;7.72;1.92;;;;;;;23.01;35.27;99666.66;4484966;32;33731;-64
2021/05/10 11:49:10;;;;;;;5.03;2.00;;;;;;;23.01;35.10;99654.94;4485189;32;33281;-64